地図

経路データ

SID SEASON NUMBER BASIN SUBBASIN NAME ISO_TIME NATURE LAT LON WMO_WIND WMO_PRES WMO_AGENCY TRACK_TYPE DIST2LAND LANDFALL IFLAG USA_AGENCY USA_ATCF_ID USA_LAT USA_LON USA_RECORD USA_STATUS USA_WIND USA_PRES USA_SSHS USA_R34_NE USA_R34_SE USA_R34_SW USA_R34_NW USA_R50_NE USA_R50_SE USA_R50_SW USA_R50_NW USA_R64_NE USA_R64_SE USA_R64_SW USA_R64_NW USA_POCI USA_ROCI USA_RMW USA_EYE TOKYO_LAT TOKYO_LON TOKYO_GRADE TOKYO_WIND TOKYO_PRES TOKYO_R50_DIR TOKYO_R50_LONG TOKYO_R50_SHORT TOKYO_R30_DIR TOKYO_R30_LONG TOKYO_R30_SHORT TOKYO_LAND CMA_LAT CMA_LON CMA_CAT CMA_WIND CMA_PRES HKO_LAT HKO_LON HKO_CAT HKO_WIND HKO_PRES NEWDELHI_LAT NEWDELHI_LON NEWDELHI_GRADE NEWDELHI_WIND NEWDELHI_PRES NEWDELHI_CI NEWDELHI_DP NEWDELHI_POCI REUNION_LAT REUNION_LON REUNION_TYPE REUNION_WIND REUNION_PRES REUNION_TNUM REUNION_CI REUNION_RMW REUNION_R34_NE REUNION_R34_SE REUNION_R34_SW REUNION_R34_NW REUNION_R50_NE REUNION_R50_SE REUNION_R50_SW REUNION_R50_NW REUNION_R64_NE REUNION_R64_SE REUNION_R64_SW REUNION_R64_NW BOM_LAT BOM_LON BOM_TYPE BOM_WIND BOM_PRES BOM_TNUM BOM_CI BOM_RMW BOM_R34_NE BOM_R34_SE BOM_R34_SW BOM_R34_NW BOM_R50_NE BOM_R50_SE BOM_R50_SW BOM_R50_NW BOM_R64_NE BOM_R64_SE BOM_R64_SW BOM_R64_NW BOM_ROCI BOM_POCI BOM_EYE BOM_POS_METHOD BOM_PRES_METHOD NADI_LAT NADI_LON NADI_CAT NADI_WIND NADI_PRES WELLINGTON_LAT WELLINGTON_LON WELLINGTON_WIND WELLINGTON_PRES DS824_LAT DS824_LON DS824_STAGE DS824_WIND DS824_PRES TD9636_LAT TD9636_LON TD9636_STAGE TD9636_WIND TD9636_PRES TD9635_LAT TD9635_LON TD9635_WIND TD9635_PRES TD9635_ROCI NEUMANN_LAT NEUMANN_LON NEUMANN_CLASS NEUMANN_WIND NEUMANN_PRES MLC_LAT MLC_LON MLC_CLASS MLC_WIND MLC_PRES USA_GUST BOM_GUST BOM_GUST_PER REUNION_GUST REUNION_GUST_PER USA_SEAHGT USA_SEARAD_NE USA_SEARAD_SE USA_SEARAD_SW USA_SEARAD_NW STORM_SPEED STORM_DIR
1950336N07086 1950 110 NI BB NOT_NAMED 1950-12-01 18:00:00 TS 7.40000 85.5000 main 400 400 O________O____ jtwc_io IO161950 7.40000 85.5000 -1 7.40000 85.5000 TC 1 328
1950336N07086 1950 110 NI BB NOT_NAMED 1950-12-01 21:00:00 TS 7.44749 85.4625 main 400 390 P________P____ IO161950 7.44749 85.4625 -1 7.44749 85.4625 TC 2 333
1950336N07086 1950 110 NI BB NOT_NAMED 1950-12-02 00:00:00 TS 7.60000 85.4000 main 392 385 O________O____ jtwc_io IO161950 7.60000 85.4000 -1 7.60000 85.4000 TC 25 5 341
1950336N07086 1950 110 NI BB NOT_NAMED 1950-12-02 03:00:00 TS 7.92891 85.3000 main 387 380 P________PO___ IO161950 7.93252 85.3000 -1 7.93252 85.3000 TC 25 7.90000 85.3000 1 8 346
1950336N07086 1950 110 NI BB NOT_NAMED 1950-12-02 06:00:00 TS 8.41468 85.1995 main 385 383 O________OP___ jtwc_io IO161950 8.40000 85.2000 -1 8.40000 85.2000 TC 25 8.47339 85.1975 1 11 350
1950336N07086 1950 110 NI BB NOT_NAMED 1950-12-02 09:00:00 TS 8.97111 85.1162 main 395 395 P________PP___ IO161950 8.94999 85.1126 -1 8.94999 85.1126 TC 25 9.02744 85.1258 1 11 355
1950336N07086 1950 110 NI BB NOT_NAMED 1950-12-02 12:00:00 TS 9.51425 85.1054 main 420 420 O________OP___ jtwc_io IO161950 9.50000 85.1000 -1 9.50000 85.1000 TC 25 9.54276 85.1161 1 10 4
1950336N07086 1950 110 NI BB NOT_NAMED 1950-12-02 15:00:00 TS 9.95331 85.1983 main 454 454 P________PO___ IO161950 9.92996 85.1975 -1 9.92996 85.1975 TC 25 10.0000 85.2000 1 9 19
1950336N07086 1950 110 NI BB NOT_NAMED 1950-12-02 18:00:00 TS 10.3284 85.3988 main 488 488 O________OP___ jtwc_io IO161950 10.3000 85.4000 -1 10.3000 85.4000 TC 25 10.3851 85.3965 1 9 33
1950336N07086 1950 110 NI BB NOT_NAMED 1950-12-02 21:00:00 TS 10.6884 85.6814 main 537 537 P________PP___ IO161950 10.6800 85.6849 -1 10.6800 85.6849 TC 25 10.7052 85.6745 1 9 42
1950336N07086 1950 110 NI BB NOT_NAMED 1950-12-03 00:00:00 TS 10.9909 85.9968 main 582 582 O________OP___ jtwc_io IO161950 11.0000 86.0000 -1 11.0000 86.0000 TC 25 10.9726 85.9903 1 8 47
1950336N07086 1950 110 NI BB NOT_NAMED 1950-12-03 03:00:00 TS 11.2200 86.2717 main 622 622 P________PO___ IO161950 11.2300 86.2576 -1 11.2300 86.2576 TC 25 11.2000 86.3000 1 7 51
1950336N07086 1950 110 NI BB NOT_NAMED 1950-12-03 06:00:00 TS 11.4050 86.5173 main 652 652 O________OP___ jtwc_io IO161950 11.4000 86.5000 -1 11.4000 86.5000 TC 25 11.4149 86.5518 1 6 54
1950336N07086 1950 110 NI BB NOT_NAMED 1950-12-03 09:00:00 TS 11.5700 86.7726 main 691 691 P________PP___ IO161950 11.5575 86.7650 -1 11.5575 86.7650 TC 30 11.5949 86.7877 1 6 57
1950336N07086 1950 110 NI BB NOT_NAMED 1950-12-03 12:00:00 TS 11.7175 87.0016 main 716 716 O________OP___ jtwc_io IO161950 11.7000 87.0000 -1 11.7000 87.0000 TC 35 11.7525 87.0048 1 5 53
1950336N07086 1950 110 NI BB NOT_NAMED 1950-12-03 15:00:00 TS 11.8666 87.1767 main 745 745 P________PO___ IO161950 11.8500 87.1650 -1 11.8500 87.1650 TC 35 11.9000 87.2000 2 4 46
1950336N07086 1950 110 NI BB NOT_NAMED 1950-12-03 18:00:00 TS 12.0136 87.3145 main 745 745 O________OP___ jtwc_io IO161950 12.0000 87.3000 -1 12.0000 87.3000 TC 35 12.0407 87.3435 2 4 43
1950336N07086 1950 110 NI BB NOT_NAMED 1950-12-03 21:00:00 TS 12.1540 87.4469 main 737 737 P________PP___ IO161950 12.1425 87.4351 -1 12.1425 87.4351 TC 35 12.1771 87.4706 2 4 44
1950336N07086 1950 110 NI BB NOT_NAMED 1950-12-04 00:00:00 TS 12.3083 87.6041 main 746 746 O________OP___ jtwc_io IO161950 12.3000 87.6000 -1 12.3000 87.6000 TC 35 12.3250 87.6123 2 5 47
1950336N07086 1950 110 NI BB NOT_NAMED 1950-12-04 03:00:00 TS 12.4850 87.8134 main 749 749 P________PO___ IO161950 12.4775 87.8201 -1 12.4775 87.8201 TC 35 12.5000 87.8000 3 6 50
1950336N07086 1950 110 NI BB NOT_NAMED 1950-12-04 06:00:00 TS 12.7085 88.0915 main 754 709 O________OP___ jtwc_io IO161950 12.7000 88.1000 -1 12.7000 88.1000 TC 35 12.7254 88.0745 3 8 50
1950336N07086 1950 110 NI BB NOT_NAMED 1950-12-04 09:00:00 TS 12.9926 88.4274 main 709 655 P________PP___ IO161950 13.0000 88.4424 -1 13.0000 88.4424 TC 35 12.9777 88.3973 3 9 50
1950336N07086 1950 110 NI BB NOT_NAMED 1950-12-04 12:00:00 TS 13.2803 88.7821 main 655 615 O________OP___ jtwc_io IO161950 13.3000 88.8000 -1 13.3000 88.8000 TC 35 13.2410 88.7465 3 8 52
1950336N07086 1950 110 NI BB NOT_NAMED 1950-12-04 15:00:00 TS 13.5049 89.1001 main 615 576 P________PO___ IO161950 13.5074 89.1002 -1 13.5074 89.1002 TC 35 13.5000 89.1000 3 8 55
1950336N07086 1950 110 NI BB NOT_NAMED 1950-12-04 18:00:00 TS 13.7121 89.4097 main 576 537 O________OP___ jtwc_io IO161950 13.7000 89.4000 -1 13.7000 89.4000 TC 35 13.7362 89.4292 3 8 55
1950336N07086 1950 110 NI BB NOT_NAMED 1950-12-04 21:00:00 TS 13.9550 89.7525 main 523 484 P________PP___ IO161950 13.9500 89.7500 -1 13.9500 89.7500 TC 35 13.9649 89.7577 3 8 54
1950336N07086 1950 110 NI BB NOT_NAMED 1950-12-05 00:00:00 TS 14.1954 90.0941 main 484 445 O________OP___ jtwc_io IO161950 14.2000 90.1000 -1 14.2000 90.1000 TC 35 14.1862 90.0823 3 8 55
1950336N07086 1950 110 NI BB NOT_NAMED 1950-12-05 03:00:00 TS 14.4050 90.4051 main 445 406 P________PO___ IO161950 14.4074 90.4076 -1 14.4074 90.4076 TC 35 14.4000 90.4000 3 7 55
1950336N07086 1950 110 NI BB NOT_NAMED 1950-12-05 06:00:00 TS 14.6027 90.7034 main 406 368 O________OP___ jtwc_io IO161950 14.6000 90.7000 -1 14.6000 90.7000 TC 35 14.6067 90.7085 3 7 56
1950336N07086 1950 110 NI BB NOT_NAMED 1950-12-05 09:00:00 TS 14.8020 91.0026 main 368 330 P________PP___ IO161950 14.7976 90.9974 -1 14.7976 90.9974 TC 30 14.8078 91.0096 3 7 55
1950336N07086 1950 110 NI BB NOT_NAMED 1950-12-05 12:00:00 TS 15.0025 91.3029 main 330 292 O________OP___ jtwc_io IO161950 15.0000 91.3000 -1 15.0000 91.3000 TC 25 15.0049 91.3059 3 7 55
1950336N07086 1950 110 NI BB NOT_NAMED 1950-12-05 15:00:00 NR 15.2000 91.6000 main 292 __________O___ IO161950 -1 TC 15.2000 91.6000 1 7 55

IBTrACS Databaseについて

本データベースは、米国NOAAが公開する1842年以降の世界の熱帯低気圧のベストトラックデータアーカイブInternational Best Track Archive for Climate Stewardship (IBTrACS)を、ウェブで閲覧しやすい形式に変換したものです。

最終更新日:2021-12-01